Time;durP1;ratioP1;P1;durP2;ratioP2;P2;SDS_P1;SDS_P2;PMS_P1;PMS_P2;Temp;Humidity;BMP_temperature;BMP_pressure;BME280_temperature;BME280_humidity;BME280_pressure;Samples;Min_cycle;Max_cycle;Signal;HPM_P1;HPM_P2
2021/04/13 00:00:42;;;;;;;;;;;;;;;5.61;55.68;101473.09;10309615;28;19921;-65
2021/04/13 00:05:48;;;;;;;;;;;;;;;5.64;56.05;101467.72;10319132;28;20407;-67
2021/04/13 00:10:52;;;;;;;;;;;;;;;5.59;55.42;101464.41;10328188;28;20007;-67
2021/04/13 00:16:03;;;;;;;;;;;;;;;5.55;54.78;101476.00;10330849;28;19965;-67
2021/04/13 00:21:05;;;;;;;;;;;;;;;5.30;55.87;101474.34;10315813;28;19972;-67
2021/04/13 00:26:09;;;;;;;;;;;;;;;5.28;55.98;101476.19;10314553;28;20413;-65
2021/04/13 00:31:17;;;;;;;;;;;;;;;5.28;55.85;101475.31;10315797;28;19953;-65
2021/04/13 00:36:21;;;;;;;;;;;;;;;5.19;56.26;101476.53;10314070;28;19961;-66
2021/04/13 00:41:29;;;;;;;;;;;;;;;5.17;56.06;101478.38;10315214;28;20012;-67
2021/04/13 00:46:33;;;;;;;;;;;;;;;5.07;55.85;101482.28;10309092;28;20416;-67
2021/04/13 00:51:36;;;;;;;;;;;;;;;4.94;56.03;101477.47;10305102;28;19922;-66
2021/04/13 00:56:39;;;;;;;;;;;;;;;4.96;56.16;101480.91;10313131;28;20755;-67
2021/04/13 01:01:41;;;;;;;;;;;;;;;4.93;56.54;101478.38;10308016;28;19961;-67
2021/04/13 01:06:43;;;;;;;;;;;;;;;4.97;56.24;101476.50;10314380;28;19921;-65
2021/04/13 01:11:48;;;;;;;;;;;;;;;4.88;56.21;101485.63;10312563;28;19921;-65
2021/04/13 01:16:51;;;;;;;;;;;;;;;4.73;57.33;101483.53;10312124;28;20608;-66
2021/04/13 01:21:59;;;;;;;;;;;;;;;4.62;57.36;101488.34;10308087;28;20380;-66
2021/04/13 01:27:00;;;;;;;;;;;;;;;4.50;57.74;101490.47;10327028;28;19933;-66
2021/04/13 01:32:02;;;;;;;;;;;;;;;4.40;59.44;101497.88;10326788;28;19926;-65
2021/04/13 01:37:16;;;;;;;;;;;;;;;4.29;59.76;101491.25;10312051;28;19921;-65
2021/04/13 01:42:18;;;;;;;;;;;;;;;4.22;59.88;101501.16;10325931;28;20011;-67
2021/04/13 01:47:20;;;;;;;;;;;;;;;4.12;60.02;101499.72;10311600;28;20410;-66
2021/04/13 01:52:41;;;;;;;;;;;;;;;4.16;60.05;101504.84;10312645;28;19964;-66
2021/04/13 01:57:42;;;;;;;;;;;;;;;4.14;60.47;101505.78;10300140;28;19925;-67
2021/04/13 02:02:45;;;;;;;;;;;;;;;4.11;61.82;101504.13;10319897;28;20507;-66
2021/04/13 02:08:01;;;;;;;;;;;;;;;4.04;63.60;101507.91;10322539;28;19933;-65
2021/04/13 02:13:05;;;;;;;;;;;;;;;3.98;64.47;101510.69;10317775;28;19990;-65
2021/04/13 02:18:13;;;;;;;;;;;;;;;4.01;64.15;101510.63;10318037;28;19933;-65
2021/04/13 02:23:14;;;;;;;;;;;;;;;4.16;63.66;101515.38;10323467;28;19991;-66
2021/04/13 02:28:16;;;;;;;;;;;;;;;4.07;64.06;101511.28;10310594;28;21464;-66
2021/04/13 02:33:17;;;;;;;;;;;;;;;4.09;64.48;101519.13;10321677;28;19992;-65
2021/04/13 02:38:22;;;;;;;;;;;;;;;3.99;65.47;101522.97;10310123;28;20368;-67
2021/04/13 02:43:31;;;;;;;;;;;;;;;4.07;65.08;101523.59;10319149;28;19922;-65
2021/04/13 02:48:35;;;;;;;;;;;;;;;3.98;65.22;101529.16;10309535;28;20518;-65
2021/04/13 02:53:35;;;;;;;;;;;;;;;3.85;65.89;101526.06;10307648;28;20458;-66
2021/04/13 02:58:47;;;;;;;;;;;;;;;3.79;66.34;101527.13;10308425;28;19961;-65
2021/04/13 03:03:49;;;;;;;;;;;;;;;3.73;66.65;101532.59;10309797;28;19921;-66
2021/04/13 03:08:50;;;;;;;;;;;;;;;3.79;66.29;101542.91;10306797;28;19926;-66
2021/04/13 03:13:52;;;;;;;;;;;;;;;4.01;65.27;101544.88;10308003;28;19960;-66
2021/04/13 03:18:54;;;;;;;;;;;;;;;3.93;65.35;101545.09;10307803;28;20028;-66
2021/04/13 03:23:57;;;;;;;;;;;;;;;3.92;65.57;101543.41;10302430;28;19929;-66
2021/04/13 03:29:04;;;;;;;;;;;;;;;3.84;65.49;101546.28;10301331;28;20017;-66
2021/04/13 03:34:06;;;;;;;;;;;;;;;3.79;65.79;101548.19;10309238;28;20008;-66
2021/04/13 03:39:10;;;;;;;;;;;;;;;3.66;66.43;101552.09;10307818;28;19950;-67
2021/04/13 03:44:15;;;;;;;;;;;;;;;3.54;66.70;101559.50;10308510;28;20364;-67
2021/04/13 03:49:18;;;;;;;;;;;;;;;3.41;67.67;101568.66;10307367;28;20517;-67
2021/04/13 03:54:39;;;;;;;;;;;;;;;3.33;67.65;101568.00;10302932;28;19972;-66
2021/04/13 03:59:43;;;;;;;;;;;;;;;3.34;67.61;101567.97;10303405;28;19922;-65
2021/04/13 04:04:44;;;;;;;;;;;;;;;3.32;68.00;101577.69;10299364;28;20325;-65
2021/04/13 04:09:46;;;;;;;;;;;;;;;3.31;67.73;101575.94;10316096;28;19921;-66
2021/04/13 04:14:57;;;;;;;;;;;;;;;3.23;67.57;101584.97;10319262;28;19933;-65
2021/04/13 04:20:08;;;;;;;;;;;;;;;3.26;67.51;101576.97;10318466;28;19929;-66
2021/04/13 04:25:11;;;;;;;;;;;;;;;3.19;68.35;101589.47;10320516;28;19926;-66
2021/04/13 04:30:23;;;;;;;;;;;;;;;3.23;68.20;101590.22;10323474;28;20004;-66
2021/04/13 04:35:44;;;;;;;;;;;;;;;3.39;67.79;101591.53;10315395;28;19965;-65
2021/04/13 04:40:47;;;;;;;;;;;;;;;3.28;67.99;101605.00;10325905;28;20345;-66
2021/04/13 04:45:49;;;;;;;;;;;;;;;3.21;68.07;101607.84;10327845;28;20013;-66
2021/04/13 04:50:52;;;;;;;;;;;;;;;3.23;68.43;101611.28;10310094;28;19961;-66
2021/04/13 04:55:53;;;;;;;;;;;;;;;3.33;68.07;101618.91;10312391;28;20015;-66
2021/04/13 05:00:55;;;;;;;;;;;;;;;3.36;68.29;101623.19;10309878;28;19933;-65
2021/04/13 05:05:56;;;;;;;;;;;;;;;3.45;67.70;101616.81;10307337;28;20075;-65
2021/04/13 05:10:57;;;;;;;;;;;;;;;3.52;67.62;101619.22;10303101;28;19925;-65
2021/04/13 05:15:58;;;;;;;;;;;;;;;3.61;67.11;101633.88;10315213;28;19995;-65
2021/04/13 05:20:59;;;;;;;;;;;;;;;3.66;67.06;101637.25;10313605;28;19929;-66
2021/04/13 05:26:00;;;;;;;;;;;;;;;3.80;66.72;101638.59;10312151;28;19922;-65
2021/04/13 05:31:02;;;;;;;;;;;;;;;3.85;66.34;101641.97;10302791;28;19928;-65
2021/04/13 05:36:04;;;;;;;;;;;;;;;3.88;66.24;101655.91;10309617;28;19922;-65
2021/04/13 05:41:06;;;;;;;;;;;;;;;3.90;66.21;101650.59;10311034;28;19980;-67
2021/04/13 05:46:07;;;;;;;;;;;;;;;4.00;66.04;101656.44;10314433;28;20411;-66
2021/04/13 05:51:08;;;;;;;;;;;;;;;4.08;64.66;101654.44;10312985;28;20056;-66
2021/04/13 05:56:12;;;;;;;;;;;;;;;4.32;63.99;101651.94;10307067;28;20367;-65
2021/04/13 06:01:13;;;;;;;;;;;;;;;4.47;63.35;101661.13;10307342;28;20008;-67
2021/04/13 06:06:14;;;;;;;;;;;;;;;4.64;62.55;101665.84;10315561;28;19922;-69
2021/04/13 06:11:18;;;;;;;;;;;;;;;4.56;62.58;101664.34;10314032;28;20370;-67
2021/04/13 06:16:21;;;;;;;;;;;;;;;4.63;62.62;101666.78;10314063;28;19921;-68
2021/04/13 06:21:22;;;;;;;;;;;;;;;4.91;62.33;101683.41;10317358;28;20043;-67
2021/04/13 06:26:23;;;;;;;;;;;;;;;4.96;62.06;101681.44;10320486;28;19940;-66
2021/04/13 06:31:24;;;;;;;;;;;;;;;5.21;61.94;101690.28;10330266;28;19922;-67
2021/04/13 06:36:27;;;;;;;;;;;;;;;5.42;61.51;101680.75;10326819;28;20422;-67
2021/04/13 06:41:28;;;;;;;;;;;;;;;5.62;60.97;101695.88;10325896;28;19948;-65
2021/04/13 06:46:36;;;;;;;;;;;;;;;5.73;59.26;101692.84;10330851;28;19929;-68
2021/04/13 06:51:43;;;;;;;;;;;;;;;6.13;57.53;101691.38;10343527;28;19932;-67
2021/04/13 06:56:58;;;;;;;;;;;;;;;6.39;56.32;101689.47;10312179;28;19921;-67
2021/04/13 07:02:00;;;;;;;;;;;;;;;6.66;54.52;101700.72;10324694;28;20295;-67
2021/04/13 07:07:05;;;;;;;;;;;;;;;6.90;53.60;101701.47;10327584;28;20000;-67
2021/04/13 07:12:09;;;;;;;;;;;;;;;6.35;52.92;101694.88;10323280;28;19996;-66
2021/04/13 07:17:22;;;;;;;;;;;;;;;6.73;52.51;101702.19;10335923;28;20612;-66
2021/04/13 07:22:29;;;;;;;;;;;;;;;6.65;53.55;101698.97;10337467;28;19937;-66
2021/04/13 07:27:36;;;;;;;;;;;;;;;7.11;51.94;101706.81;10336124;28;19929;-66
2021/04/13 07:32:37;;;;;;;;;;;;;;;7.38;51.26;101699.44;10320904;28;19922;-66
2021/04/13 07:37:40;;;;;;;;;;;;;;;7.61;51.04;101695.75;10323104;28;19922;-66
2021/04/13 07:42:45;;;;;;;;;;;;;;;7.76;50.36;101703.03;10326651;28;20020;-66
2021/04/13 07:47:52;;;;;;;;;;;;;;;8.16;49.53;101695.00;10331867;28;20015;-66
2021/04/13 07:52:57;;;;;;;;;;;;;;;8.58;48.19;101701.88;10332536;28;19975;-66
2021/04/13 07:58:14;;;;;;;;;;;;;;;8.75;47.55;101706.38;10337424;28;19916;-69
2021/04/13 08:03:24;;;;;;;;;;;;;;;8.31;46.53;101707.53;10351717;28;19921;-66
2021/04/13 08:08:35;;;;;;;;;;;;;;;8.53;48.34;101700.34;10328177;28;19993;-66
2021/04/13 08:13:37;;;;;;;;;;;;;;;8.76;44.91;101670.03;10344577;28;19921;-66
2021/04/13 08:18:42;;;;;;;;;;;;;;;9.30;44.90;101697.34;10327681;28;20449;-68
2021/04/13 08:23:43;;;;;;;;;;;;;;;8.59;44.57;101702.75;10326640;28;19973;-67
2021/04/13 08:28:55;;;;;;;;;;;;;;;9.53;43.31;101697.94;10328246;28;19973;-66
2021/04/13 08:34:03;;;;;;;;;;;;;;;9.86;42.76;101694.41;10340808;28;20626;-68
2021/04/13 08:39:06;;;;;;;;;;;;;;;10.29;41.87;101701.84;10331440;28;20000;-66
2021/04/13 08:44:20;;;;;;;;;;;;;;;10.59;41.71;101694.78;10329756;28;20024;-67
2021/04/13 08:49:31;;;;;;;;;;;;;;;9.75;41.98;101702.97;10317829;28;19976;-66
2021/04/13 08:54:33;;;;;;;;;;;;;;;10.28;41.34;101695.63;10344024;28;20008;-66
2021/04/13 08:59:36;;;;;;;;;;;;;;;10.72;40.08;101697.59;10333017;28;19930;-67
2021/04/13 09:04:37;;;;;;;;;;;;;;;9.69;42.48;101698.84;10328502;28;20024;-67
2021/04/13 09:10:07;;;;;;;;;;;;;;;9.46;43.49;101700.09;10334493;28;20024;-67
2021/04/13 09:15:20;;;;;;;;;;;;;;;10.69;41.72;101688.91;10251124;28;21473;-66
2021/04/13 09:20:33;;;;;;;;;;;;;;;11.36;40.55;101693.84;10329819;28;20009;-66
2021/04/13 09:25:37;;;;;;;;;;;;;;;12.30;38.97;101696.88;10332454;28;19926;-66
2021/04/13 09:30:43;;;;;;;;;;;;;;;12.39;38.05;101700.75;10329032;28;19925;-67
2021/04/13 09:36:04;;;;;;;;;;;;;;;11.05;39.31;101693.03;10327378;28;19961;-66
2021/04/13 09:41:20;;;;;;;;;;;;;;;10.67;41.03;101696.16;10324316;28;19926;-65
2021/04/13 09:46:24;;;;;;;;;;;;;;;12.27;36.68;101683.72;10327452;28;19921;-66
2021/04/13 09:51:27;;;;;;;;;;;;;;;12.25;36.53;101682.97;10330794;28;19925;-67
2021/04/13 09:56:47;;;;;;;;;;;;;;;11.91;35.25;101678.91;10343807;28;20459;-67
2021/04/13 10:01:58;;;;;;;;;;;;;;;11.62;35.56;101668.25;10341739;23;19991;-74
2021/04/13 10:07:05;;;;;;;;;;;;;;;12.87;32.71;101671.75;10325078;28;20182;-72
2021/04/13 10:12:12;;;;;;;;;;;;;;;13.51;32.03;101662.94;10305847;28;20339;-69
2021/04/13 10:17:13;;;;;;;;;;;;;;;13.79;31.42;101653.78;10309084;28;20020;-73
2021/04/13 10:22:33;;;;;;;;;;;;;;;13.46;32.20;101643.69;10304290;28;19922;-72
2021/04/13 10:29:14;;;;;;;;;;;;;;;14.76;30.72;101653.88;10370346;28;19988;-63
2021/04/13 10:34:33;;;;;;;;;;;;;;;14.41;31.64;101641.28;10389553;28;19933;-62
2021/04/13 10:39:34;;;;;;;;;;;;;;;13.01;33.54;101646.75;10387657;28;20011;-63
2021/04/13 10:44:44;;;;;;;;;;;;;;;12.49;33.76;101642.25;10395866;28;19929;-62
2021/04/13 10:50:10;;;;;;;;;;;;;;;14.00;31.20;101641.66;10391169;28;20095;-63
2021/04/13 10:55:17;;;;;;;;;;;;;;;14.23;31.53;101634.59;10391497;28;20402;-63
2021/04/13 11:00:33;;;;;;;;;;;;;;;12.12;34.46;101628.66;10388448;28;20050;-63
2021/04/13 11:05:43;;;;;;;;;;;;;;;15.70;30.17;101629.59;10389908;28;19933;-62
2021/04/13 11:10:47;;;;;;;;;;;;;;;19.39;24.71;101611.56;10388805;28;19975;-65
2021/04/13 11:15:52;;;;;;;;;;;;;;;16.35;27.87;101614.47;10380163;28;19973;-63
2021/04/13 11:21:07;;;;;;;;;;;;;;;14.30;30.16;101617.09;10389197;28;19964;-63
2021/04/13 11:26:57;;;;;;;;;;;;;;;12.79;34.65;101630.47;10413622;28;19932;-63
2021/04/13 11:32:04;;;;;;;;;;;;;;;11.61;37.49;101635.38;10406125;28;19933;-63
2021/04/13 11:37:17;;;;;;;;;;;;;;;11.16;39.06;101631.97;10421690;28;20362;-63
2021/04/13 11:42:31;;;;;;;;;;;;;;;10.95;40.09;101632.31;10403950;28;20398;-64
2021/04/13 11:47:35;;;;;;;;;;;;;;;12.45;36.78;101625.56;10401357;28;20486;-63
2021/04/13 11:52:43;;;;;;;;;;;;;;;13.54;34.28;101632.44;10403967;28;20350;-63
2021/04/13 11:58:03;;;;;;;;;;;;;;;21.35;23.09;101626.28;10397149;28;19925;-63
2021/04/13 12:03:21;;;;;;;;;;;;;;;23.80;19.17;101609.44;10401018;28;21438;-63
2021/04/13 12:08:31;;;;;;;;;;;;;;;21.31;21.89;101623.03;10403942;28;20476;-65
2021/04/13 12:13:37;;;;;;;;;;;;;;;18.09;25.34;101616.53;10398301;28;20027;-64
2021/04/13 12:18:39;;;;;;;;;;;;;;;15.71;28.56;101615.19;10384969;28;20020;-63
2021/04/13 12:23:45;;;;;;;;;;;;;;;14.06;30.19;101615.28;10401307;28;20422;-61
2021/04/13 12:28:47;;;;;;;;;;;;;;;12.72;32.18;101628.22;10399842;28;20360;-61
2021/04/13 12:33:47;;;;;;;;;;;;;;;12.60;32.18;101615.69;10398296;28;19948;-61
2021/04/13 12:38:55;;;;;;;;;;;;;;;12.40;31.96;101611.69;10397926;28;20051;-61
2021/04/13 12:44:00;;;;;;;;;;;;;;;12.32;31.83;101614.84;10398902;28;19933;-61
2021/04/13 12:49:15;;;;;;;;;;;;;;;12.35;32.12;101619.97;10397635;28;20035;-61
2021/04/13 12:54:33;;;;;;;;;;;;;;;12.13;32.60;101611.69;10397359;28;19933;-61
2021/04/13 12:59:35;;;;;;;;;;;;;;;11.89;33.29;101619.44;10382394;28;20408;-61
2021/04/13 13:04:36;;;;;;;;;;;;;;;11.46;33.03;101610.53;10399364;28;19932;-61
2021/04/13 13:09:39;;;;;;;;;;;;;;;11.74;32.36;101608.81;10398537;28;19971;-61
2021/04/13 13:14:43;;;;;;;;;;;;;;;12.55;31.55;101604.47;10396360;28;20012;-61
2021/04/13 13:19:47;;;;;;;;;;;;;;;14.09;30.24;101590.09;10400983;28;19925;-61
2021/04/13 13:24:50;;;;;;;;;;;;;;;14.79;27.99;101591.13;10399947;28;19936;-62
2021/04/13 13:29:52;;;;;;;;;;;;;;;14.78;26.53;101581.38;10401414;28;20090;-61
2021/04/13 13:34:54;;;;;;;;;;;;;;;14.58;26.13;101582.88;10396905;28;20413;-62
2021/04/13 13:39:58;;;;;;;;;;;;;;;13.63;27.13;101580.97;10394147;28;19925;-61
2021/04/13 13:44:59;;;;;;;;;;;;;;;13.63;26.43;101556.88;10392782;28;20222;-62
2021/04/13 13:50:02;;;;;;;;;;;;;;;13.59;26.90;101564.25;10393453;28;20003;-61
2021/04/13 13:55:18;;;;;;;;;;;;;;;13.39;27.79;101557.69;10394960;28;19928;-62
2021/04/13 14:00:31;;;;;;;;;;;;;;;13.54;28.75;101554.84;10386658;28;20408;-62
2021/04/13 14:05:35;;;;;;;;;;;;;;;13.42;28.84;101553.91;10386445;28;19928;-62
2021/04/13 14:10:37;;;;;;;;;;;;;;;13.88;28.42;101552.41;10397512;28;20358;-62
2021/04/13 14:15:40;;;;;;;;;;;;;;;13.43;28.12;101540.44;10396500;28;19943;-62
2021/04/13 14:20:59;;;;;;;;;;;;;;;13.42;27.76;101535.19;10396208;28;20112;-62
2021/04/13 14:26:09;;;;;;;;;;;;;;;13.05;28.24;101533.31;10391600;28;19935;-62
2021/04/13 14:31:18;;;;;;;;;;;;;;;13.03;28.00;101523.69;10395590;28;20396;-62
2021/04/13 14:36:19;;;;;;;;;;;;;;;12.62;27.91;101528.28;10392745;28;20150;-62
2021/04/13 14:41:20;;;;;;;;;;;;;;;12.48;29.03;101520.38;10408987;28;19982;-61
2021/04/13 14:46:21;;;;;;;;;;;;;;;12.57;28.17;101511.72;10398653;28;20369;-61
2021/04/13 14:51:22;;;;;;;;;;;;;;;12.29;28.91;101518.09;10398115;28;19959;-61
2021/04/13 14:56:23;;;;;;;;;;;;;;;11.80;29.21;101503.50;10397117;28;20381;-63
2021/04/13 15:01:24;;;;;;;;;;;;;;;11.84;29.19;101502.34;10400631;28;19968;-60
2021/04/13 15:06:26;;;;;;;;;;;;;;;11.87;29.62;101504.81;10394782;28;20012;-64
2021/04/13 15:11:26;;;;;;;;;;;;;;;11.61;28.92;101485.19;10401158;28;19940;-63
2021/04/13 15:16:27;;;;;;;;;;;;;;;11.75;29.55;101481.63;10404993;28;19955;-63
2021/04/13 15:21:30;;;;;;;;;;;;;;;11.24;30.36;101482.22;10397613;28;19924;-63
2021/04/13 15:26:31;;;;;;;;;;;;;;;10.96;30.11;101479.50;10406258;28;20283;-62
2021/04/13 15:31:32;;;;;;;;;;;;;;;10.91;30.32;101476.28;10405494;28;20283;-62
2021/04/13 15:36:42;;;;;;;;;;;;;;;11.19;30.40;101479.84;10404632;28;19933;-64
2021/04/13 15:41:45;;;;;;;;;;;;;;;11.27;29.98;101474.91;10404706;28;19932;-60
2021/04/13 15:46:52;;;;;;;;;;;;;;;10.67;30.46;101469.78;10402950;28;19933;-60
2021/04/13 15:51:54;;;;;;;;;;;;;;;10.95;31.06;101466.28;10400595;28;19968;-64
2021/04/13 15:56:56;;;;;;;;;;;;;;;11.06;30.61;101461.09;10395553;28;19958;-63
2021/04/13 16:01:57;;;;;;;;;;;;;;;10.89;31.03;101461.34;10400563;28;20359;-64
2021/04/13 16:06:58;;;;;;;;;;;;;;;11.03;30.97;101461.31;10403786;23;20370;-61
2021/04/13 16:12:00;;;;;;;;;;;;;;;10.82;32.55;101455.53;10329689;28;19941;-63
2021/04/13 16:17:01;;;;;;;;;;;;;;;10.72;31.38;101465.03;10330243;28;19976;-61
2021/04/13 16:22:02;;;;;;;;;;;;;;;10.75;31.62;101454.22;10327971;28;19956;-60
2021/04/13 16:27:04;;;;;;;;;;;;;;;10.69;31.70;101459.91;10308694;28;20075;-61
2021/04/13 16:32:15;;;;;;;;;;;;;;;10.37;32.73;101463.59;10326624;28;20350;-60
2021/04/13 16:37:20;;;;;;;;;;;;;;;10.48;32.99;101468.28;10286279;28;19940;-62
2021/04/13 16:42:41;;;;;;;;;;;;;;;10.54;33.16;101462.56;10295108;28;20260;-61
2021/04/13 16:49:04;;;;;;;3.13;1.67;;;;;;;10.48;34.94;101470.06;10486792;27;20343;-66
2021/04/13 16:54:05;;;;;;;1.92;0.90;;;;;;;10.46;32.82;101470.16;10422566;28;20559;-60
2021/04/13 16:59:07;;;;;;;4.35;1.15;;;;;;;10.45;33.37;101473.78;10412441;28;20130;-61
2021/04/13 17:04:15;;;;;;;2.80;0.90;;;;;;;10.46;33.15;101480.78;10413545;28;20879;-61
2021/04/13 17:09:20;;;;;;;1.95;0.98;;;;;;;9.86;33.84;101479.00;10453812;28;20052;-61
2021/04/13 17:14:38;;;;;;;2.67;1.15;;;;;;;9.87;35.14;101475.41;10460666;28;20508;-62
2021/04/13 17:19:40;;;;;;;2.40;1.10;;;;;;;9.98;35.17;101496.03;10456638;28;20076;-60
2021/04/13 17:24:46;;;;;;;3.60;0.97;;;;;;;10.01;34.59;101490.53;10455196;28;20049;-61
2021/04/13 17:30:12;;;;;;;3.55;1.08;;;;;;;9.81;34.80;101492.56;10453710;28;21146;-60
2021/04/13 17:35:14;;;;;;;3.60;0.98;;;;;;;9.54;35.66;101500.31;10415747;28;20121;-61
2021/04/13 17:40:18;;;;;;;1.80;0.90;;;;;;;9.43;36.67;101495.59;10406075;28;20764;-62
2021/04/13 17:45:22;;;;;;;1.73;1.10;;;;;;;8.92;38.47;101500.19;10412627;28;20056;-61
2021/04/13 17:50:30;;;;;;;2.63;0.75;;;;;;;9.24;38.88;101506.38;10413458;28;20577;-61
2021/04/13 17:55:39;;;;;;;2.28;1.20;;;;;;;9.20;39.71;101511.00;10417156;28;20489;-59
2021/04/13 18:00:40;;;;;;;2.25;1.00;;;;;;;9.20;40.12;101515.44;10384802;28;20110;-60
2021/04/13 18:05:50;;;;;;;1.90;1.13;;;;;;;9.16;41.90;101525.41;10380777;28;20064;-61
2021/04/13 18:10:59;;;;;;;2.92;1.05;;;;;;;9.01;44.43;101523.56;10382560;28;20126;-60
2021/04/13 18:16:08;;;;;;;5.35;2.50;;;;;;;8.83;46.19;101544.84;10425099;28;20090;-59
2021/04/13 18:21:14;;;;;;;2.30;1.30;;;;;;;9.07;45.92;101544.50;10420439;28;20044;-62
2021/04/13 18:26:20;;;;;;;3.17;1.92;;;;;;;8.75;47.78;101547.06;10426881;28;20875;-63
2021/04/13 18:31:34;;;;;;;4.45;2.05;;;;;;;8.43;49.47;101557.50;10425970;28;20126;-64
2021/04/13 18:36:39;;;;;;;1.58;1.25;;;;;;;8.26;49.97;101560.16;10445945;28;20059;-60
2021/04/13 18:41:47;;;;;;;3.88;1.67;;;;;;;8.13;51.13;101571.34;10433670;28;20505;-61
2021/04/13 18:46:57;;;;;;;4.20;1.65;;;;;;;7.99;51.74;101578.25;10412152;28;20135;-60
2021/04/13 18:52:13;;;;;;;2.53;1.52;;;;;;;7.89;51.77;101583.16;10380691;28;20060;-61
2021/04/13 18:57:21;;;;;;;3.20;1.50;;;;;;;7.85;52.12;101581.56;10387539;28;20076;-62
2021/04/13 19:02:29;;;;;;;3.45;1.42;;;;;;;7.77;52.37;101589.91;10386299;28;20749;-61
2021/04/13 19:07:49;;;;;;;3.00;2.17;;;;;;;7.76;52.27;101585.53;10387228;28;20068;-61
2021/04/13 19:12:54;;;;;;;3.83;2.03;;;;;;;7.70;52.18;101583.16;10387667;28;20053;-61
2021/04/13 19:18:10;;;;;;;3.90;2.00;;;;;;;7.63;52.13;101597.63;10398211;28;20054;-59
2021/04/13 19:23:30;;;;;;;2.72;1.65;;;;;;;7.56;52.56;101597.91;10393407;28;20124;-60
2021/04/13 19:28:42;;;;;;;4.45;2.22;;;;;;;7.55;52.81;101595.34;10392146;28;20097;-61
2021/04/13 19:33:46;;;;;;;3.03;2.17;;;;;;;7.55;52.98;101605.94;10398921;28;20056;-60
2021/04/13 19:38:57;;;;;;;3.20;2.33;;;;;;;7.73;52.79;101602.44;10391901;28;20099;-61
2021/04/13 19:44:00;;;;;;;3.67;2.60;;;;;;;7.85;52.73;101603.66;10396050;28;20099;-63
2021/04/13 19:49:06;;;;;;;3.60;2.58;;;;;;;7.74;52.54;101608.59;10386934;28;20157;-60
2021/04/13 19:54:13;;;;;;;3.45;1.80;;;;;;;7.66;52.73;101610.78;10383310;28;21527;-60
2021/04/13 19:59:17;;;;;;;3.55;1.98;;;;;;;7.47;53.16;101597.50;10394281;28;20061;-61
2021/04/13 20:04:24;;;;;;;3.33;2.30;;;;;;;7.37;53.58;101597.03;10409185;28;21162;-60
2021/04/13 20:09:26;;;;;;;3.20;2.13;;;;;;;7.50;53.42;101598.22;10461862;28;20667;-61
2021/04/13 20:14:42;;;;;;;3.53;2.00;;;;;;;7.56;52.85;101599.72;10447101;28;20118;-61
2021/04/13 20:20:05;;;;;;;3.78;2.30;;;;;;;7.65;52.82;101593.13;10449145;28;20048;-60
2021/04/13 20:25:13;;;;;;;5.85;3.85;;;;;;;7.73;52.51;101589.19;10441013;28;20060;-61
2021/04/13 20:30:36;;;;;;;6.75;3.83;;;;;;;7.75;52.56;101587.31;10463140;28;20051;-61
2021/04/13 20:38:18;;;;;;;4.65;3.10;;;;;;;7.55;52.79;101590.03;10465222;28;20052;-60
2021/04/13 20:41:35;;;;;;;5.93;4.28;;;;;;;7.36;54.07;101585.59;10414831;28;20099;-61
2021/04/13 20:47:05;;;;;;;5.28;3.85;;;;;;;7.34;53.41;101598.06;10411173;28;20128;-62
2021/04/13 20:52:09;;;;;;;22.17;14.50;;;;;;;7.36;53.39;101585.59;10470641;28;20051;-60
2021/04/13 20:57:37;;;;;;;4.28;3.00;;;;;;;7.42;53.31;101587.13;10465377;28;20049;-60
2021/04/13 21:02:44;;;;;;;3.40;2.72;;;;;;;7.45;53.26;101581.69;10450246;28;20638;-61
2021/04/13 21:07:58;;;;;;;4.30;3.08;;;;;;;7.38;53.41;101583.72;10459563;28;20135;-60
2021/04/13 21:13:00;;;;;;;3.95;3.00;;;;;;;7.35;53.61;101581.22;10462952;28;20128;-60
2021/04/13 21:18:04;;;;;;;7.47;4.22;;;;;;;7.28;54.43;101585.09;10462448;28;20055;-59
2021/04/13 21:23:26;;;;;;;4.55;3.80;;;;;;;7.20;54.92;101581.94;10465941;28;20048;-59
2021/04/13 21:28:38;;;;;;;5.85;3.58;;;;;;;7.10;55.48;101583.28;10448417;28;20710;-61
2021/04/13 21:33:47;;;;;;;4.65;3.15;;;;;;;6.84;55.81;101578.19;10465470;28;20078;-62
2021/04/13 21:39:00;;;;;;;4.22;3.58;;;;;;;6.94;55.87;101586.59;10467199;28;20114;-59
2021/04/13 21:44:03;;;;;;;4.18;3.25;;;;;;;7.05;55.29;101592.25;10496220;28;20056;-60
2021/04/13 21:49:10;;;;;;;3.88;2.88;;;;;;;6.89;54.34;101586.81;10475081;28;20822;-60
2021/04/13 21:54:34;;;;;;;4.18;2.67;;;;;;;6.70;53.81;101584.09;10466741;28;20139;-61
2021/04/13 21:59:46;;;;;;;4.07;3.00;;;;;;;6.60;53.12;101581.91;10461239;28;20102;-60
2021/04/13 22:04:48;;;;;;;4.07;3.53;;;;;;;6.52;53.02;101587.53;10468777;28;20113;-59
2021/04/13 22:10:05;;;;;;;4.50;3.20;;;;;;;6.61;53.24;101581.84;10416127;22;20060;-58
2021/04/13 22:15:10;;;;;;;3.08;2.33;;;;;;;6.64;53.31;101575.56;10377052;28;20049;-60
2021/04/13 22:20:20;;;;;;;3.47;2.45;;;;;;;6.55;53.05;101579.47;10383197;28;20472;-60
2021/04/13 22:25:26;;;;;;;4.07;2.38;;;;;;;6.55;52.85;101576.81;10387289;28;20398;-59
2021/04/13 22:30:32;;;;;;;3.67;3.10;;;;;;;6.28;53.01;101573.56;10382444;28;20041;-59
2021/04/13 22:35:51;;;;;;;4.07;2.35;;;;;;;6.23;52.61;101576.38;10380346;28;20072;-58
2021/04/13 22:40:52;;;;;;;5.43;2.33;;;;;;;6.18;52.42;101563.34;10376319;28;20482;-58
2021/04/13 22:45:53;;;;;;;4.40;2.10;;;;;;;6.12;51.90;101563.59;10371823;28;20301;-59
2021/04/13 22:50:54;;;;;;;3.75;2.13;;;;;;;6.00;52.44;101559.69;10372313;28;20524;-57
2021/04/13 22:56:02;;;;;;;2.55;1.92;;;;;;;5.94;52.36;101559.88;10375665;28;20464;-59
2021/04/13 23:01:07;;;;;;;5.03;2.30;;;;;;;5.86;52.29;101561.97;10375705;28;20103;-58
2021/04/13 23:06:08;;;;;;;3.77;2.20;;;;;;;5.73;52.88;101566.88;10382535;28;20140;-59
2021/04/13 23:11:10;;;;;;;4.00;2.08;;;;;;;5.85;52.71;101560.25;10374446;28;20111;-58
2021/04/13 23:16:11;;;;;;;3.25;2.22;;;;;;;5.59;53.31;101548.94;10388866;28;20057;-59
2021/04/13 23:21:12;;;;;;;2.20;2.00;;;;;;;5.67;53.11;101556.53;10374423;28;20054;-61
2021/04/13 23:26:13;;;;;;;2.88;2.35;;;;;;;5.21;53.88;101542.47;10373535;28;20072;-57
2021/04/13 23:31:14;;;;;;;3.10;2.25;;;;;;;5.08;54.72;101548.19;10373344;28;20049;-61
2021/04/13 23:36:15;;;;;;;3.28;1.70;;;;;;;5.06;55.06;101544.78;10377896;28;20119;-59
2021/04/13 23:41:16;;;;;;;2.40;1.80;;;;;;;5.40;53.79;101545.28;10375441;28;20060;-58
2021/04/13 23:46:19;;;;;;;4.07;1.80;;;;;;;5.53;52.68;101537.75;10365696;28;20123;-62
2021/04/13 23:51:20;;;;;;;3.67;1.60;;;;;;;5.58;52.84;101541.91;10374103;28;20048;-60
2021/04/13 23:56:21;;;;;;;4.60;1.63;;;;;;;5.59;52.85;101534.88;10367820;28;20053;-58
